»·PEaware :: N5673S KSNA-KSMO

N5673S :: KSNA-KSMO

FLIGHT INFORMATION

Flight Status: Arrived
Operator: Privately registered:
United States
More flights under this callsign
Pilot: Thiago S. (19132)
Aircraft: PIPER PA-28 CHEROKEE ARCHER
(P28A)
More flights by this aircraft type
Origin: KSNA John Wayne-Orange Co
United States
Destination: KSMO Santa Monica Mun
United States
More flights between these airports :: More routes between these airports
Route: SLI V8 POXKU V363 BAYJY V186 DARTS
File this flight plan on PilotEdge
Remarks: I RATING 4
Altitude:
(Current/Filed)
6,000ft
Speed:
(Current/Filed)
100kts
Departed: 16-Feb-19 08:46 AM
Arrived: 16-Feb-19 09:31 AM
Distance/Time
Traveled:
35nm/0:45
Distance/Time
To Go:
Arrived

Flight Plot

Page will automatically refresh every two minutes.


Map Options




Map Legend


Flown Route
Filed Route
Departure Airport
Arrival Airport
Navaid (VOR, NDB)
Fix

Horizontal Profiles

Position Reports

Time Latitude Longitude Heading Altitude Ground
Speed
16-Feb-19 08:28 33.675666 -117.872829 209 59ft 0kts
16-Feb-19 08:29 33.675666 -117.872829 209 59ft 0kts
16-Feb-19 08:30 33.675663 -117.872831 209 59ft 0kts
16-Feb-19 08:31 33.675660 -117.872833 209 59ft 0kts
16-Feb-19 08:32 33.675656 -117.872835 209 59ft 0kts
16-Feb-19 08:33 33.675653 -117.872838 209 59ft 0kts
16-Feb-19 08:34 33.675650 -117.872840 209 59ft 0kts
16-Feb-19 08:35 33.675647 -117.872842 209 59ft 0kts
16-Feb-19 08:36 33.675644 -117.872844 209 59ft 0kts
16-Feb-19 08:37 33.675641 -117.872846 209 59ft 0kts
16-Feb-19 08:38 33.675637 -117.872848 209 59ft 0kts
16-Feb-19 08:39 33.675857 -117.872590 115 59ft 3kts
16-Feb-19 08:40 33.675159 -117.870906 69 59ft 6kts
16-Feb-19 08:41 33.677311 -117.869541 27 59ft 9kts
16-Feb-19 08:42 33.680226 -117.867801 26 59ft 13kts
16-Feb-19 08:43 33.680864 -117.866507 116 59ft 0kts
16-Feb-19 08:44 33.680861 -117.866499 116 59ft 0kts
16-Feb-19 08:45 33.680777 -117.866297 116 59ft 8kts
16-Feb-19 08:46 33.666904 -117.874418 208 436ft 98kts
16-Feb-19 08:46 33.649812 -117.891069 239 1135ft 96kts
16-Feb-19 08:48 33.634201 -117.923720 242 1929ft 98kts
16-Feb-19 08:49 33.618785 -117.955666 242 2040ft 115kts
16-Feb-19 08:50 33.601613 -117.987765 240 2041ft 110kts
16-Feb-19 08:50 33.598103 -118.014539 297 2408ft 94kts
16-Feb-19 08:51 33.619203 -118.021696 19 2847ft 98kts
16-Feb-19 08:53 33.647008 -118.002660 27 3403ft 99kts
16-Feb-19 08:53 33.667725 -117.989082 24 3811ft 112kts
16-Feb-19 08:54 33.694100 -117.971085 24 4412ft 102kts
16-Feb-19 08:55 33.718881 -117.954987 23 5064ft 101kts
16-Feb-19 08:56 33.743009 -117.937395 22 5534ft 100kts
16-Feb-19 08:57 33.766445 -117.919773 24 5868ft 98kts
16-Feb-19 08:58 33.790407 -117.901553 23 6061ft 111kts
16-Feb-19 08:59 33.816845 -117.882075 47 6033ft 120kts
16-Feb-19 09:00 33.829892 -117.844926 59 5997ft 113kts
16-Feb-19 09:01 33.839933 -117.808925 65 6024ft 112kts
16-Feb-19 09:02 33.858095 -117.785679 353 6037ft 105kts
16-Feb-19 09:03 33.887403 -117.786450 353 6021ft 103kts
16-Feb-19 09:04 33.916421 -117.786652 354 6011ft 104kts
16-Feb-19 09:05 33.945393 -117.787062 354 5968ft 104kts
16-Feb-19 09:06 33.974116 -117.786560 354 5936ft 99kts
16-Feb-19 09:07 34.001493 -117.785969 354 5974ft 98kts
16-Feb-19 09:08 34.015875 -117.808880 287 5963ft 95kts
16-Feb-19 09:09 34.023937 -117.839109 287 6010ft 94kts
16-Feb-19 09:10 34.032494 -117.869226 291 6037ft 95kts
16-Feb-19 09:11 34.042641 -117.899015 291 6039ft 96kts
16-Feb-19 09:12 34.052243 -117.929191 289 6044ft 96kts
16-Feb-19 09:13 34.060955 -117.959676 286 6025ft 96kts
16-Feb-19 09:14 34.069018 -117.990628 288 6071ft 100kts
16-Feb-19 09:15 34.077820 -118.023790 289 6025ft 103kts
16-Feb-19 09:16 34.086244 -118.056481 290 6002ft 99kts
16-Feb-19 09:17 34.096554 -118.086770 296 5992ft 96kts
16-Feb-19 09:18 34.108411 -118.115807 300 5988ft 96kts
16-Feb-19 09:19 34.121310 -118.144040 300 6002ft 96kts
16-Feb-19 09:20 34.127740 -118.175827 288 5978ft 97kts
16-Feb-19 09:21 34.135882 -118.206856 291 5971ft 96kts
16-Feb-19 09:22 34.138359 -118.238770 241 5972ft 117kts
16-Feb-19 09:23 34.119467 -118.272011 241 5283ft 120kts
16-Feb-19 09:24 34.101775 -118.306086 243 4639ft 120kts
16-Feb-19 09:25 34.084596 -118.339476 243 3877ft 113kts
16-Feb-19 09:26 34.070775 -118.371299 247 2932ft 98kts
16-Feb-19 09:27 34.058898 -118.400205 248 1887ft 94kts
16-Feb-19 09:28 34.041730 -118.421331 226 1023ft 86kts
16-Feb-19 09:29 34.025148 -118.440570 224 445ft 69kts
16-Feb-19 09:30 34.015288 -118.451934 224 178ft 30kts
16-Feb-19 09:31 34.013226 -118.453360 137 178ft 0kts
16-Feb-19 09:32 34.013223 -118.453357 137 178ft 0kts
16-Feb-19 09:33 34.013221 -118.453354 137 178ft 0kts
16-Feb-19 09:34 34.012280 -118.453672 135 178ft 2kts
16-Feb-19 09:35 34.012185 -118.453562 135 178ft 0kts
16-Feb-19 09:36 34.012185 -118.453562 135 178ft 0kts
16-Feb-19 09:37 34.012185 -118.453562 135 178ft 0kts
16-Feb-19 09:38 34.012185 -118.453562 135 178ft 0kts
16-Feb-19 09:39 34.012185 -118.453562 135 178ft 0kts
16-Feb-19 09:40 34.012185 -118.453562 135 178ft 0kts
16-Feb-19 09:41 34.012185 -118.453562 135 178ft 0kts
16-Feb-19 09:42 34.012185 -118.453562 135 178ft 0kts
16-Feb-19 09:43 34.012185 -118.453562 135 178ft 0kts
16-Feb-19 09:44 34.012185 -118.453562 135 178ft 0kts

Navigation Log

Ident Type
Flight plan parsing failed, navigation log unavailable